Sherwood, MD

2:33 PM EDT on October 24, 2014 (GMT -0400)
Easton / Newnam | Change Station
CLOSE
Current Station
Airport
Location: Easton,
Elevation: 72 ft
Nearby Weather Stations

Elev 72 ft 38.80 °N, 76.07 °W | Updated 43 minutes ago

Partly Cloudy
Partly Cloudy
68 °F
Feels Like 68 °F
N
12
Wind Variable Wind from NW
Gusts 20 mph

Today
High -- | Low -- °F
--% Chance of Precip.
Yesterday
High -- | Low -- °F
Precip. -- in
7:23 AM 6:14 PM
New Moon, 1% visible
Pressure 29.91 in
Visibility 10.0 miles
Clouds Scattered Clouds 6000 ft
Dew Point 46 °F
Humidity 46%
Rainfall 0.00 in
Snow Depth Not available.
UV 4 out of 12
Pollen 1.90 out of 12
Air Quality Not available.
Flu Activity Sporadic
METAR KESN 241750Z 32010G17KT 10SM SCT060 20/08 A2991

More Conditions Fewer Conditions

Pressure 29.91 in
Visibility 10.0 miles
Clouds Scattered Clouds 6000 ft
Dew Point 46 °F
Humidity 46%
Rainfall 0.00 in
Snow Depth Not available.
UV 4 out of 12
Pollen 1.90 out of 12
Air Quality Not available.
Flu Activity Sporadic
METAR KESN 241750Z 32010G17KT 10SM SCT060 20/08 A2991

More Conditions Fewer Conditions

10-Day Weather Forecast

Almanac

Astronomy

Oct. 24, 2014 Rise Set
Actual Time 7:23 AM EDT 6:14 PM EDT
Civil Twilight 6:56 AM EDT 6:41 PM EDT
Nautical Twilight 6:25 AM EDT 7:12 PM EDT
Astronomical Twilight 5:54 AM EDT 7:43 PM EDT
Moon 8:00 AM EDT 6:53 PM EDT
Length of Visible Light 11h 45m
Length of Day
10h 50m
Tomorrow will be 2m 19s shorter.
New Moon, 1% of the Moon is Illuminated
Today
New Moon
Oct 30
First Quarter
Nov 6
Full
Nov 14
Last Quarter
Nov 22
New

Today's Extremes

State Highs State Lows

Community

WunderPhotos

Upload Photos

1,764,632 photos uploaded!

WunderBlogs® & News

Nearby

Snow Depth

Station Depth Elevation
No new snow has been reported.

Earthquake Activity

City Distance Mag. Time & Date
No recent earthquake activity has been reported nearby.
Minimum magnitude displayed is 2.5.

Coastal Water Temperatures

Place Temperature
Cambridge, MD 60.1 °F
Solomons Island, MD 64.0 °F

Nearby Weather Stations